createdAt,value
2023-03-17T00:00:25.720Z,101057.91
2023-03-17T00:01:27.863Z,101050.91
2023-03-17T00:02:30.192Z,101050.13
2023-03-17T00:03:36.168Z,101049.22
2023-03-17T00:04:38.188Z,101043.00
2023-03-17T00:05:40.317Z,101049.91
2023-03-17T00:06:42.566Z,101049.03
2023-03-17T00:07:46.183Z,101046.44
2023-03-17T00:08:48.334Z,101045.53
2023-03-17T00:09:50.623Z,101043.59
2023-03-17T00:10:53.224Z,101042.88
2023-03-17T00:11:55.229Z,101033.13
2023-03-17T00:12:57.217Z,101034.84
2023-03-17T00:13:59.315Z,101028.81
2023-03-17T00:15:02.344Z,101029.66
2023-03-17T00:16:07.463Z,101035.00
2023-03-17T00:17:11.877Z,101030.59
2023-03-17T00:18:15.069Z,101025.34
2023-03-17T00:19:19.057Z,101027.06
2023-03-17T00:20:21.236Z,101023.59
2023-03-17T00:21:30.670Z,101025.31
2023-03-17T00:22:32.902Z,101021.75
2023-03-17T00:23:35.867Z,101021.72
2023-03-17T00:24:37.768Z,101030.63
2023-03-17T00:25:43.311Z,101021.72
2023-03-17T00:26:45.247Z,101015.50
2023-03-17T00:27:48.850Z,101014.63
2023-03-17T00:28:51.440Z,101020.84
2023-03-17T00:29:56.379Z,101013.75
2023-03-17T00:30:59.875Z,101018.19
2023-03-17T00:32:02.346Z,101019.97
2023-03-17T00:33:04.858Z,101019.19
2023-03-17T00:34:08.006Z,101015.78
2023-03-17T00:35:16.009Z,101014.00
2023-03-17T00:36:25.970Z,101018.47
2023-03-17T00:37:29.295Z,101018.44
2023-03-17T00:38:31.545Z,101005.22
2023-03-17T00:39:33.654Z,101012.31
2023-03-17T00:40:36.723Z,101014.94
2023-03-17T00:41:39.352Z,101015.78
2023-03-17T00:42:41.826Z,101014.03
2023-03-17T00:43:44.409Z,101013.22
2023-03-17T00:44:47.313Z,101007.94
2023-03-17T00:45:49.462Z,100999.13
2023-03-17T00:46:53.188Z,101005.31
2023-03-17T00:47:58.221Z,101000.06
2023-03-17T00:49:00.201Z,100990.41
2023-03-17T00:50:02.245Z,100994.75
2023-03-17T00:51:05.301Z,100982.41
2023-03-17T00:52:08.637Z,100980.66
2023-03-17T00:53:15.242Z,100992.16
2023-03-17T00:54:19.586Z,100989.50
2023-03-17T00:55:22.281Z,100991.28
2023-03-17T00:56:24.419Z,100985.06
2023-03-17T00:57:27.801Z,100994.75
2023-03-17T00:58:33.950Z,100984.13
2023-03-17T00:59:41.089Z,100983.28
2023-03-17T01:00:45.977Z,100980.69
2023-03-17T01:01:49.087Z,100980.69
2023-03-17T01:02:52.631Z,100991.25
2023-03-17T01:03:55.156Z,100984.16
2023-03-17T01:05:05.721Z,100984.16
2023-03-17T01:06:11.838Z,100980.63
2023-03-17T01:07:14.243Z,100982.31
2023-03-17T01:08:16.850Z,100975.25
2023-03-17T01:09:20.355Z,100979.59
2023-03-17T01:10:24.338Z,100986.72
2023-03-17T01:11:26.350Z,100979.66
2023-03-17T01:12:29.162Z,100977.00
2023-03-17T01:13:31.108Z,100976.09
2023-03-17T01:14:36.742Z,100984.94
2023-03-17T01:15:41.924Z,100979.66
2023-03-17T01:16:44.797Z,100983.16
2023-03-17T01:17:46.854Z,100977.00
2023-03-17T01:18:49.364Z,100978.69
2023-03-17T01:19:51.760Z,100970.00
2023-03-17T01:20:53.984Z,100970.00
2023-03-17T01:21:56.571Z,100964.69
2023-03-17T01:22:58.971Z,100967.38
2023-03-17T01:24:01.596Z,100968.22
2023-03-17T01:25:05.157Z,100965.59
2023-03-17T01:26:07.688Z,100961.19
2023-03-17T01:27:10.344Z,100955.00
2023-03-17T01:28:16.824Z,100954.16
2023-03-17T01:29:18.749Z,100948.94
2023-03-17T01:30:29.339Z,100937.50
2023-03-17T01:31:31.684Z,100941.00
2023-03-17T01:32:33.873Z,100933.03
2023-03-17T01:33:36.630Z,100937.47
2023-03-17T01:34:38.850Z,100941.00
2023-03-17T01:35:41.559Z,100932.16
2023-03-17T01:36:43.997Z,100926.84
2023-03-17T01:37:46.489Z,100926.84
2023-03-17T01:38:50.726Z,100932.16
2023-03-17T01:39:52.846Z,100920.72
2023-03-17T01:40:55.042Z,100922.50
2023-03-17T01:42:01.315Z,100915.47
2023-03-17T01:43:17.358Z,100925.19
2023-03-17T01:44:19.454Z,100917.22
2023-03-17T01:45:40.377Z,100925.13
2023-03-17T01:46:44.072Z,100917.19
2023-03-17T01:47:46.564Z,100908.38
2023-03-17T01:48:54.673Z,100912.75
2023-03-17T01:50:07.587Z,100920.69
2023-03-17T01:51:14.028Z,100921.59
2023-03-17T01:52:17.989Z,100921.56
2023-03-17T01:53:21.432Z,100921.56
2023-03-17T01:54:42.074Z,100921.56
2023-03-17T01:55:45.547Z,100920.63
2023-03-17T01:56:49.291Z,100914.41
2023-03-17T01:57:53.597Z,100913.63
2023-03-17T01:58:57.848Z,100914.50
2023-03-17T02:00:05.257Z,100916.22
2023-03-17T02:01:15.018Z,100915.38
2023-03-17T02:02:20.578Z,100917.97
2023-03-17T02:03:22.975Z,100912.72
2023-03-17T02:04:26.783Z,100910.91
2023-03-17T02:05:31.021Z,100917.94
2023-03-17T02:06:34.058Z,100920.59
2023-03-17T02:07:36.825Z,100912.66
2023-03-17T02:08:39.443Z,100913.56
2023-03-17T02:09:41.406Z,100910.94
2023-03-17T02:10:44.784Z,100913.50
2023-03-17T02:11:49.104Z,100909.94
2023-03-17T02:12:53.759Z,100904.66
2023-03-17T02:13:55.910Z,100915.22
2023-03-17T02:14:58.529Z,100918.72
2023-03-17T02:16:00.714Z,100909.91
2023-03-17T02:17:02.795Z,100911.66
2023-03-17T02:18:05.097Z,100909.00
2023-03-17T02:19:08.004Z,100904.56
2023-03-17T02:20:33.170Z,100903.72
2023-03-17T02:21:46.268Z,100904.63
2023-03-17T02:22:55.023Z,100907.25
2023-03-17T02:23:57.952Z,100909.09
2023-03-17T02:25:00.530Z,100901.09
2023-03-17T02:26:04.034Z,100908.13
2023-03-17T02:27:29.744Z,100908.13
2023-03-17T02:28:32.138Z,100907.25
2023-03-17T02:29:36.066Z,100901.97
2023-03-17T02:30:38.365Z,100904.63
2023-03-17T02:31:40.988Z,100905.50
2023-03-17T02:32:43.428Z,100894.88
2023-03-17T02:33:46.230Z,100895.72
2023-03-17T02:34:48.818Z,100892.19
2023-03-17T02:35:51.199Z,100888.72
2023-03-17T02:36:53.475Z,100894.84
2023-03-17T02:37:56.531Z,100890.47
2023-03-17T02:38:58.644Z,100884.25
2023-03-17T02:40:05.922Z,100879.91
2023-03-17T02:41:09.792Z,100873.69
2023-03-17T02:42:12.978Z,100873.69
2023-03-17T02:43:15.175Z,100875.47
2023-03-17T02:44:17.658Z,100871.97
2023-03-17T02:45:20.536Z,100879.00
2023-03-17T02:46:22.887Z,100873.69
2023-03-17T02:47:25.810Z,100870.19
2023-03-17T02:48:28.406Z,100877.22
2023-03-17T02:49:31.365Z,100876.28
2023-03-17T02:50:33.581Z,100876.25
2023-03-17T02:51:36.154Z,100863.88
2023-03-17T02:52:38.127Z,100871.81
2023-03-17T02:53:40.297Z,100868.31
2023-03-17T02:54:42.927Z,100866.50
2023-03-17T02:55:44.884Z,100866.50
2023-03-17T02:56:46.987Z,100863.94
2023-03-17T02:57:48.978Z,100864.75
2023-03-17T02:58:51.216Z,100859.50
2023-03-17T02:59:53.341Z,100848.84
2023-03-17T03:00:56.143Z,100855.06
2023-03-17T03:01:58.218Z,100855.16
2023-03-17T03:03:00.718Z,100850.72
2023-03-17T03:04:03.506Z,100858.72
2023-03-17T03:05:07.562Z,100854.28
2023-03-17T03:06:09.611Z,100852.56
2023-03-17T03:07:12.276Z,100851.66
2023-03-17T03:08:14.641Z,100851.59
2023-03-17T03:09:17.836Z,100859.50
2023-03-17T03:10:20.078Z,100859.44
2023-03-17T03:11:22.008Z,100855.94
2023-03-17T03:12:24.317Z,100850.72
2023-03-17T03:13:26.268Z,100853.41
2023-03-17T03:14:28.206Z,100849.00
2023-03-17T03:15:30.540Z,100846.28
2023-03-17T03:16:32.482Z,100843.66
2023-03-17T03:17:34.794Z,100855.94
2023-03-17T03:18:37.835Z,100847.16
2023-03-17T03:19:39.911Z,100855.97
2023-03-17T03:20:43.356Z,100846.31
2023-03-17T03:21:46.136Z,100856.84
2023-03-17T03:22:48.345Z,100855.91
2023-03-17T03:23:50.430Z,100852.34
2023-03-17T03:24:52.425Z,100856.91
2023-03-17T03:25:54.716Z,100851.59
2023-03-17T03:26:56.740Z,100855.09
2023-03-17T03:27:58.980Z,100849.75
2023-03-17T03:29:01.408Z,100844.53
2023-03-17T03:30:04.366Z,100848.06
2023-03-17T03:31:06.727Z,100842.78
2023-03-17T03:32:08.999Z,100832.19
2023-03-17T03:33:11.933Z,100847.22
2023-03-17T03:34:14.114Z,100837.53
2023-03-17T03:35:17.077Z,100839.28
2023-03-17T03:36:19.240Z,100832.19
2023-03-17T03:37:21.346Z,100834.88
2023-03-17T03:38:23.547Z,100839.25
2023-03-17T03:39:25.752Z,100832.19
2023-03-17T03:40:28.544Z,100832.97
2023-03-17T03:41:30.809Z,100828.56
2023-03-17T03:42:33.234Z,100835.59
2023-03-17T03:43:35.797Z,100835.59
2023-03-17T03:44:38.235Z,100839.06
2023-03-17T03:45:40.583Z,100834.56
2023-03-17T03:46:42.681Z,100831.91
2023-03-17T03:47:44.646Z,100833.69
2023-03-17T03:48:46.621Z,100836.22
2023-03-17T03:49:48.765Z,100841.53
2023-03-17T03:50:50.908Z,100838.97
2023-03-17T03:51:53.180Z,100841.56
2023-03-17T03:52:55.148Z,100843.31
2023-03-17T03:53:57.337Z,100843.25
2023-03-17T03:54:59.587Z,100843.25
2023-03-17T03:56:02.061Z,100847.63
2023-03-17T03:57:04.094Z,100845.97
2023-03-17T03:58:06.739Z,100849.56
2023-03-17T03:59:09.785Z,100846.94
2023-03-17T04:00:14.119Z,100844.22
2023-03-17T04:01:16.296Z,100851.19
2023-03-17T04:02:18.437Z,100850.31
2023-03-17T04:03:20.648Z,100842.31
2023-03-17T04:04:23.151Z,100840.53
2023-03-17T04:05:25.251Z,100847.63
2023-03-17T04:06:27.731Z,100848.53
2023-03-17T04:07:30.075Z,100852.00
2023-03-17T04:08:32.509Z,100854.63
2023-03-17T04:09:35.103Z,100849.41
2023-03-17T04:10:37.358Z,100849.38
2023-03-17T04:11:39.686Z,100846.69
2023-03-17T04:12:42.085Z,100844.97
2023-03-17T04:13:44.097Z,100846.75
2023-03-17T04:14:46.916Z,100844.97
2023-03-17T04:15:49.018Z,100844.09
2023-03-17T04:16:51.208Z,100842.31
2023-03-17T04:17:55.045Z,100847.56
2023-03-17T04:18:57.952Z,100842.25
2023-03-17T04:20:00.199Z,100847.59
2023-03-17T04:21:02.617Z,100840.50
2023-03-17T04:22:05.503Z,100837.88
2023-03-17T04:23:08.009Z,100837.81
2023-03-17T04:24:10.160Z,100837.78
2023-03-17T04:25:14.216Z,100843.03
2023-03-17T04:26:18.893Z,100836.88
2023-03-17T04:27:20.992Z,100838.66
2023-03-17T04:28:22.987Z,100836.06
2023-03-17T04:29:25.126Z,100830.88
2023-03-17T04:30:27.249Z,100834.38
2023-03-17T04:31:29.376Z,100835.22
2023-03-17T04:32:32.131Z,100836.94
2023-03-17T04:33:34.144Z,100845.75
2023-03-17T04:34:36.291Z,100841.25
2023-03-17T04:35:38.460Z,100847.47
2023-03-17T04:36:41.041Z,100853.56
2023-03-17T04:37:43.275Z,100854.44
2023-03-17T04:38:45.433Z,100850.06
2023-03-17T04:39:47.597Z,100843.91
2023-03-17T04:40:50.446Z,100847.41
2023-03-17T04:41:52.635Z,100840.41
2023-03-17T04:42:54.630Z,100841.31
2023-03-17T04:43:56.587Z,100846.63
2023-03-17T04:44:58.667Z,100842.97
2023-03-17T04:46:01.094Z,100845.69
2023-03-17T04:47:03.381Z,100843.03
2023-03-17T04:48:05.894Z,100839.50
2023-03-17T04:49:08.479Z,100837.75
2023-03-17T04:50:10.748Z,100839.44
2023-03-17T04:51:12.674Z,100832.44
2023-03-17T04:52:15.003Z,100834.22
2023-03-17T04:53:16.936Z,100832.44
2023-03-17T04:54:18.920Z,100821.88
2023-03-17T04:55:21.235Z,100810.28
2023-03-17T04:56:23.172Z,100812.78
2023-03-17T04:57:25.384Z,100822.69
2023-03-17T04:58:30.787Z,100821.91
2023-03-17T04:59:33.172Z,100815.66
2023-03-17T05:00:38.816Z,100810.41
2023-03-17T05:01:41.108Z,100803.41
2023-03-17T05:02:43.226Z,100808.72
2023-03-17T05:03:45.447Z,100806.91
2023-03-17T05:04:47.924Z,100810.44
2023-03-17T05:05:50.753Z,100816.72
2023-03-17T05:06:53.114Z,100803.56
2023-03-17T05:07:55.245Z,100806.19
2023-03-17T05:08:57.170Z,100804.47
2023-03-17T05:09:59.599Z,100806.22
2023-03-17T05:11:03.890Z,100800.91
2023-03-17T05:12:06.241Z,100812.28
2023-03-17T05:13:08.558Z,100820.19
2023-03-17T05:14:10.644Z,100817.59
2023-03-17T05:15:12.911Z,100822.81
2023-03-17T05:16:15.203Z,100809.50
2023-03-17T05:17:17.390Z,100817.31
2023-03-17T05:18:20.003Z,100812.16
2023-03-17T05:19:22.076Z,100807.78
2023-03-17T05:20:24.522Z,100807.91
2023-03-17T05:21:27.076Z,100800.03
2023-03-17T05:22:29.033Z,100796.53
2023-03-17T05:23:31.303Z,100784.91
2023-03-17T05:24:33.642Z,100791.16
2023-03-17T05:25:35.695Z,100781.53
2023-03-17T05:26:37.907Z,100785.19
2023-03-17T05:27:40.093Z,100783.41
2023-03-17T05:28:42.163Z,100782.34
2023-03-17T05:29:44.271Z,100782.28
2023-03-17T05:30:46.599Z,100783.25
2023-03-17T05:31:48.784Z,100792.16
2023-03-17T05:32:51.283Z,100797.38
2023-03-17T05:33:53.595Z,100802.56
2023-03-17T05:34:55.909Z,100792.81
2023-03-17T05:35:57.893Z,100802.59
2023-03-17T05:37:00.187Z,100809.69
2023-03-17T05:38:02.522Z,100798.16
2023-03-17T05:39:05.125Z,100807.72
2023-03-17T05:40:08.397Z,100808.66
2023-03-17T05:41:10.672Z,100806.88
2023-03-17T05:42:12.860Z,100807.69
2023-03-17T05:43:15.049Z,100816.59
2023-03-17T05:44:17.012Z,100819.16
2023-03-17T05:45:19.033Z,100816.44
2023-03-17T05:46:21.669Z,100807.56
2023-03-17T05:47:23.889Z,100817.41
2023-03-17T05:48:26.693Z,100822.63
2023-03-17T05:49:28.823Z,100820.84
2023-03-17T05:50:30.917Z,100817.22
2023-03-17T05:51:34.309Z,100818.06
2023-03-17T05:52:38.013Z,100822.53
2023-03-17T05:53:40.489Z,100814.56
2023-03-17T05:54:42.456Z,100822.47
2023-03-17T05:55:44.818Z,100819.88
2023-03-17T05:56:47.164Z,100819.81
2023-03-17T05:57:49.134Z,100819.91
2023-03-17T05:58:51.273Z,100810.25
2023-03-17T05:59:53.254Z,100808.47
2023-03-17T06:00:56.061Z,100810.13
2023-03-17T06:01:57.979Z,100806.53
2023-03-17T06:02:59.971Z,100814.34
2023-03-17T06:04:02.732Z,100802.72
2023-03-17T06:05:05.208Z,100807.91
2023-03-17T06:06:07.259Z,100815.13
2023-03-17T06:07:10.255Z,100825.66
2023-03-17T06:08:13.003Z,100825.47
2023-03-17T06:09:15.449Z,100833.22
2023-03-17T06:10:17.928Z,100836.84
2023-03-17T06:11:21.528Z,100843.84
2023-03-17T06:12:23.493Z,100842.34
2023-03-17T06:13:25.631Z,100838.63
2023-03-17T06:14:27.557Z,100835.19
2023-03-17T06:15:30.099Z,100822.22
2023-03-17T06:16:33.287Z,100823.81
2023-03-17T06:17:35.801Z,100822.03
2023-03-17T06:18:38.101Z,100812.16
2023-03-17T06:19:40.723Z,100812.09
2023-03-17T06:20:42.869Z,100804.06
2023-03-17T06:21:45.011Z,100809.25
2023-03-17T06:23:02.755Z,100800.34
2023-03-17T06:24:06.366Z,100806.53
2023-03-17T06:25:10.203Z,100807.25
2023-03-17T06:26:12.543Z,100803.56
2023-03-17T06:27:14.787Z,100806.41
2023-03-17T06:28:17.001Z,100800.16
2023-03-17T06:29:19.585Z,100805.28
2023-03-17T06:30:22.457Z,100799.13
2023-03-17T06:31:24.642Z,100795.50
2023-03-17T06:32:27.129Z,100795.63
2023-03-17T06:33:29.163Z,100799.94
2023-03-17T06:34:32.886Z,100795.25
2023-03-17T06:35:35.339Z,100803.34
2023-03-17T06:36:39.186Z,100805.00
2023-03-17T06:37:41.596Z,100804.00
2023-03-17T06:38:43.754Z,100806.63
2023-03-17T06:39:45.985Z,100812.81
2023-03-17T06:40:47.927Z,100817.28
2023-03-17T06:41:51.189Z,100812.88
2023-03-17T06:42:53.342Z,100822.56
2023-03-17T06:43:55.241Z,100817.03
2023-03-17T06:44:57.621Z,100818.81
2023-03-17T06:45:59.552Z,100814.38
2023-03-17T06:47:02.115Z,100814.28
2023-03-17T06:48:04.133Z,100810.50
2023-03-17T06:49:08.160Z,100818.50
2023-03-17T06:50:11.417Z,100819.16
2023-03-17T06:51:13.358Z,100812.22
2023-03-17T06:52:15.418Z,100811.44
2023-03-17T06:53:17.590Z,100813.19
2023-03-17T06:54:20.845Z,100809.03
2023-03-17T06:55:22.807Z,100815.97
2023-03-17T06:56:30.075Z,100824.66
2023-03-17T06:57:32.627Z,100820.44
2023-03-17T06:58:34.886Z,100816.97
2023-03-17T06:59:37.072Z,100818.72
2023-03-17T07:00:39.973Z,100822.97
2023-03-17T07:01:41.996Z,100820.22
2023-03-17T07:02:44.417Z,100822.66
2023-03-17T07:03:46.621Z,100826.06
2023-03-17T07:04:49.069Z,100817.25
2023-03-17T07:05:51.281Z,100820.69
2023-03-17T07:06:53.464Z,100823.16
2023-03-17T07:07:55.724Z,100820.56
2023-03-17T07:08:57.685Z,100817.84
2023-03-17T07:09:59.981Z,100816.09
2023-03-17T07:11:04.134Z,100816.31
2023-03-17T07:12:06.512Z,100818.16
2023-03-17T07:13:08.590Z,100819.13
2023-03-17T07:14:10.526Z,100828.84
2023-03-17T07:15:12.994Z,100839.31
2023-03-17T07:16:16.718Z,100841.00
2023-03-17T07:17:19.679Z,100848.75
2023-03-17T07:18:21.687Z,100846.91
2023-03-17T07:19:23.890Z,100846.72
2023-03-17T07:20:26.056Z,100845.75
2023-03-17T07:21:28.166Z,100842.19
2023-03-17T07:22:31.042Z,100847.34
2023-03-17T07:23:33.008Z,100843.03
2023-03-17T07:24:35.181Z,100841.41
2023-03-17T07:25:37.719Z,100844.78
2023-03-17T07:26:40.240Z,100840.22
2023-03-17T07:27:42.554Z,100843.81
2023-03-17T07:28:44.716Z,100838.38
2023-03-17T07:29:47.349Z,100827.34
2023-03-17T07:30:50.022Z,100830.56
2023-03-17T07:31:52.061Z,100837.78
2023-03-17T07:32:55.240Z,100833.06
2023-03-17T07:33:57.638Z,100830.22
2023-03-17T07:34:59.718Z,100836.44
2023-03-17T07:36:02.354Z,100834.19
2023-03-17T07:37:05.257Z,100825.84
2023-03-17T07:38:07.338Z,100828.59
2023-03-17T07:39:12.014Z,100830.81
2023-03-17T07:40:14.534Z,100826.94
2023-03-17T07:41:16.622Z,100824.09
2023-03-17T07:42:18.625Z,100818.19
2023-03-17T07:43:21.706Z,100826.75
2023-03-17T07:44:24.573Z,100818.31
2023-03-17T07:45:26.891Z,100813.22
2023-03-17T07:46:28.980Z,100812.25
2023-03-17T07:47:30.955Z,100809.84
2023-03-17T07:48:33.337Z,100816.56
2023-03-17T07:49:41.762Z,100808.38
2023-03-17T07:50:44.511Z,100795.22
2023-03-17T07:51:46.692Z,100796.44
2023-03-17T07:52:48.867Z,100779.31
2023-03-17T07:53:51.948Z,100774.09
2023-03-17T07:54:54.567Z,100768.50
2023-03-17T07:55:56.724Z,100761.69
2023-03-17T07:56:58.746Z,100760.22
2023-03-17T07:58:00.790Z,100764.97
2023-03-17T07:59:02.803Z,100770.16
2023-03-17T08:00:09.089Z,100764.28
2023-03-17T08:01:13.493Z,100758.41
2023-03-17T08:02:16.539Z,100767.25
2023-03-17T08:03:19.493Z,100765.22
2023-03-17T08:04:21.602Z,100770.22
2023-03-17T08:05:24.188Z,100784.69
2023-03-17T08:06:26.819Z,100782.19
2023-03-17T08:07:29.318Z,100785.34
2023-03-17T08:08:31.491Z,100780.91
2023-03-17T08:09:33.671Z,100773.94
2023-03-17T08:10:36.236Z,100764.56
2023-03-17T08:11:38.628Z,100754.81
2023-03-17T08:12:40.816Z,100752.78
2023-03-17T08:13:43.245Z,100744.88
2023-03-17T08:14:45.213Z,100755.69
2023-03-17T08:15:47.316Z,100749.34
2023-03-17T08:16:49.537Z,100759.97
2023-03-17T08:17:51.700Z,100758.53
2023-03-17T08:18:53.919Z,100758.06
2023-03-17T08:19:56.610Z,100761.19
2023-03-17T08:20:58.742Z,100745.16
2023-03-17T08:22:01.579Z,100745.25
2023-03-17T08:23:03.798Z,100733.78
2023-03-17T08:24:05.918Z,100732.28
2023-03-17T08:25:09.581Z,100729.50
2023-03-17T08:26:11.669Z,100731.31
2023-03-17T08:27:13.642Z,100730.41
2023-03-17T08:28:16.335Z,100734.34
2023-03-17T08:29:18.936Z,100727.59
2023-03-17T08:30:21.605Z,100723.34
2023-03-17T08:31:23.802Z,100724.16
2023-03-17T08:32:26.290Z,100710.44
2023-03-17T08:33:28.317Z,100717.72
2023-03-17T08:34:31.462Z,100726.84
2023-03-17T08:35:34.446Z,100714.75
2023-03-17T08:36:36.967Z,100727.97
2023-03-17T08:37:38.879Z,100714.06
2023-03-17T08:38:41.496Z,100710.03
2023-03-17T08:39:44.886Z,100708.25
2023-03-17T08:40:46.945Z,100703.66
2023-03-17T08:41:49.142Z,100720.53
2023-03-17T08:42:51.169Z,100702.13
2023-03-17T08:43:53.210Z,100710.41
2023-03-17T08:44:55.269Z,100711.81
2023-03-17T08:46:01.722Z,100699.88
2023-03-17T08:47:03.977Z,100692.13
2023-03-17T08:48:09.584Z,100691.25
2023-03-17T08:49:12.493Z,100691.56
2023-03-17T08:50:16.853Z,100703.38
2023-03-17T08:51:22.119Z,100709.75
2023-03-17T08:52:26.099Z,100710.53
2023-03-17T08:53:28.362Z,100704.81
2023-03-17T08:54:30.432Z,100715.63
2023-03-17T08:55:32.532Z,100721.28
2023-03-17T08:56:40.412Z,100716.75
2023-03-17T08:57:44.670Z,100721.72
2023-03-17T08:58:47.608Z,100727.81
2023-03-17T08:59:49.735Z,100722.41
2023-03-17T09:00:52.457Z,100728.16
2023-03-17T09:01:55.989Z,100730.88
2023-03-17T09:02:59.223Z,100725.53
2023-03-17T09:04:01.706Z,100730.69
2023-03-17T09:05:05.191Z,100735.22
2023-03-17T09:06:11.643Z,100724.09
2023-03-17T09:07:13.694Z,100721.63
2023-03-17T09:08:15.823Z,100721.75
2023-03-17T09:09:18.083Z,100711.28
2023-03-17T09:10:22.743Z,100714.22
2023-03-17T09:11:26.463Z,100721.25
2023-03-17T09:12:28.982Z,100715.56
2023-03-17T09:13:31.215Z,100711.56
2023-03-17T09:14:42.798Z,100716.47
2023-03-17T09:15:46.109Z,100724.06
2023-03-17T09:16:49.604Z,100717.03
2023-03-17T09:17:51.924Z,100728.44
2023-03-17T09:18:54.196Z,100723.81
2023-03-17T09:19:56.240Z,100730.91
2023-03-17T09:20:58.178Z,100731.50
2023-03-17T09:22:03.120Z,100726.56
2023-03-17T09:23:08.134Z,100725.38
2023-03-17T09:24:10.277Z,100729.88
2023-03-17T09:25:12.346Z,100722.19
2023-03-17T09:26:14.280Z,100724.34
2023-03-17T09:27:16.281Z,100713.81
2023-03-17T09:28:19.076Z,100720.06
2023-03-17T09:29:21.030Z,100714.22
2023-03-17T09:30:23.500Z,100710.00
2023-03-17T09:31:25.557Z,100708.88
2023-03-17T09:32:27.512Z,100710.03
2023-03-17T09:33:30.126Z,100711.13
2023-03-17T09:34:32.743Z,100716.34
2023-03-17T09:35:34.788Z,100712.78
2023-03-17T09:36:37.538Z,100719.97
2023-03-17T09:37:39.693Z,100716.72
2023-03-17T09:38:41.872Z,100709.66
2023-03-17T09:39:44.010Z,100707.94
2023-03-17T09:40:46.024Z,100701.00
2023-03-17T09:42:01.726Z,100702.00
2023-03-17T09:43:22.427Z,100702.84
2023-03-17T09:44:32.198Z,100711.75
2023-03-17T09:45:37.276Z,100716.78
2023-03-17T09:46:53.658Z,100710.34
2023-03-17T09:48:07.370Z,100714.38
2023-03-17T09:49:14.690Z,100714.38
2023-03-17T09:50:19.848Z,100701.81
2023-03-17T09:51:22.301Z,100704.31
2023-03-17T09:52:29.125Z,100705.63
2023-03-17T09:53:36.306Z,100711.28
2023-03-17T09:54:39.029Z,100704.97
2023-03-17T09:55:42.043Z,100704.31
2023-03-17T09:56:46.898Z,100703.75
2023-03-17T09:57:51.725Z,100692.81
2023-03-17T09:58:56.958Z,100691.09
2023-03-17T10:00:06.228Z,100692.22
2023-03-17T10:01:10.401Z,100686.00
2023-03-17T10:02:22.875Z,100686.38
2023-03-17T10:03:25.962Z,100686.91
2023-03-17T10:04:29.171Z,100684.38
2023-03-17T10:05:34.721Z,100680.28
2023-03-17T10:06:39.252Z,100682.13
2023-03-17T10:07:46.306Z,100681.41
2023-03-17T10:08:56.516Z,100680.81
2023-03-17T10:10:03.401Z,100681.91
2023-03-17T10:11:40.938Z,100684.94
2023-03-17T10:13:06.491Z,100682.84
2023-03-17T10:14:18.199Z,100680.22
2023-03-17T10:15:33.242Z,100683.91
2023-03-17T10:16:44.606Z,100678.19
2023-03-17T10:17:47.302Z,100680.59
2023-03-17T10:18:58.544Z,100681.47
2023-03-17T10:20:12.801Z,100678.66
2023-03-17T10:21:17.963Z,100675.56
2023-03-17T10:22:26.382Z,100676.88
2023-03-17T10:23:31.373Z,100675.22
2023-03-17T10:24:34.158Z,100677.16
2023-03-17T10:25:38.429Z,100679.47
2023-03-17T10:26:46.093Z,100669.19
2023-03-17T10:27:57.051Z,100685.88
2023-03-17T10:28:59.960Z,100685.50
2023-03-17T10:30:01.896Z,100669.59
2023-03-17T10:31:14.141Z,100682.03
2023-03-17T10:32:16.134Z,100676.66
2023-03-17T10:33:18.324Z,100672.25
2023-03-17T10:34:25.573Z,100677.28
2023-03-17T10:35:27.877Z,100669.31
2023-03-17T10:36:35.534Z,100665.97
2023-03-17T10:37:37.763Z,100671.56
2023-03-17T10:38:39.766Z,100674.72
2023-03-17T10:39:47.107Z,100670.03
2023-03-17T10:41:10.113Z,100661.75
2023-03-17T10:42:15.555Z,100659.41
2023-03-17T10:43:21.818Z,100661.63
2023-03-17T10:44:23.759Z,100652.50
2023-03-17T10:45:30.847Z,100653.91
2023-03-17T10:46:33.331Z,100659.69
2023-03-17T10:47:38.132Z,100656.34
2023-03-17T10:48:40.297Z,100655.28
2023-03-17T10:49:44.092Z,100657.41
2023-03-17T10:50:48.632Z,100650.34
2023-03-17T10:51:55.815Z,100650.75
2023-03-17T10:53:03.705Z,100646.59
2023-03-17T10:54:10.722Z,100640.00
2023-03-17T10:55:15.316Z,100644.91
2023-03-17T10:56:26.273Z,100647.41
2023-03-17T10:57:29.052Z,100643.38
2023-03-17T10:58:45.398Z,100642.59
2023-03-17T10:59:53.858Z,100640.50
2023-03-17T11:00:57.299Z,100636.91
2023-03-17T11:02:00.749Z,100642.72
2023-03-17T11:03:14.843Z,100641.81
2023-03-17T11:04:29.122Z,100636.88
2023-03-17T11:05:31.261Z,100636.53
2023-03-17T11:06:37.167Z,100639.34
2023-03-17T11:07:40.443Z,100634.50
2023-03-17T11:08:42.405Z,100637.88
2023-03-17T11:09:49.144Z,100639.56
2023-03-17T11:10:54.757Z,100634.34
2023-03-17T11:12:06.719Z,100631.34
2023-03-17T11:13:09.074Z,100640.22
2023-03-17T11:14:11.631Z,100638.13
2023-03-17T11:15:16.631Z,100635.22
2023-03-17T11:16:22.586Z,100639.75
2023-03-17T11:17:38.021Z,100642.91
2023-03-17T11:18:40.360Z,100645.41
2023-03-17T11:20:01.140Z,100636.22
2023-03-17T11:21:18.605Z,100632.84
2023-03-17T11:22:24.884Z,100645.94
2023-03-17T11:23:46.518Z,100644.38
2023-03-17T11:25:07.247Z,100635.66
2023-03-17T11:26:22.780Z,100636.94
2023-03-17T11:27:33.324Z,100626.66
2023-03-17T11:28:39.916Z,100630.72
2023-03-17T11:29:58.265Z,100623.34
2023-03-17T11:31:00.338Z,100626.31
2023-03-17T11:32:05.765Z,100620.78
2023-03-17T11:33:17.021Z,100617.88
2023-03-17T11:34:23.594Z,100615.25
2023-03-17T11:35:44.235Z,100617.72
2023-03-17T11:37:00.779Z,100629.81
2023-03-17T11:38:12.348Z,100628.09
2023-03-17T11:39:21.171Z,100616.97
2023-03-17T11:40:33.271Z,100618.25
2023-03-17T11:41:41.600Z,100617.28
2023-03-17T11:42:43.713Z,100613.91
2023-03-17T11:43:59.518Z,100619.66
2023-03-17T11:45:02.740Z,100619.81
2023-03-17T11:46:27.698Z,100611.44
2023-03-17T11:47:38.864Z,100604.50
2023-03-17T11:49:04.271Z,100603.25
2023-03-17T11:50:18.474Z,100598.03
2023-03-17T11:51:27.574Z,100600.97
2023-03-17T11:52:35.549Z,100598.16
2023-03-17T11:53:50.421Z,100593.84
2023-03-17T11:55:13.653Z,100601.72
2023-03-17T11:56:15.645Z,100591.09
2023-03-17T11:57:22.611Z,100593.16
2023-03-17T11:58:30.897Z,100591.44
2023-03-17T11:59:36.227Z,100589.94
2023-03-17T12:00:45.713Z,100580.88
2023-03-17T12:01:56.035Z,100583.69
2023-03-17T12:03:01.056Z,100585.03
2023-03-17T12:04:11.151Z,100579.19
2023-03-17T12:05:15.569Z,100587.97
2023-03-17T12:06:31.806Z,100581.00
2023-03-17T12:07:37.484Z,100573.63
2023-03-17T12:08:42.412Z,100575.91
2023-03-17T12:09:51.298Z,100575.25
2023-03-17T12:10:56.867Z,100569.09
2023-03-17T12:12:00.447Z,100578.19